Terminal Aerodrome Forecast
Issued by NWS

Home | Current Version | Previous Version | Text Only | Print | Product List | Glossary On
Versions: 1 2 3 4 5 6 7 8 9 10 11 12 13 14 15 16 17 18 19 20 21 22 23 24
020
FTUS41 KBUF 290901 AAA
TAFIAG
TAF AMD
KIAG 290901Z 2909/3006 08011KT P6SM OVC050
     FM291000 07013G19KT P6SM VCSH OVC060
     FM291400 08014G20KT P6SM -SHRA OVC035
     FM291800 08016G24KT P6SM -SHRA OVC015
     FM292300 08013KT P6SM VCSH OVC030
     FM300300 09010KT P6SM OVC050=

USA.gov is the U.S. government's official web portal to all federal, state and local government web resources and services.